createdAt,value
2017-12-15T00:00:52.515Z,6.07
2017-12-15T00:03:23.992Z,5.90
2017-12-15T00:06:06.774Z,6.12
2017-12-15T00:08:38.652Z,6.16
2017-12-15T00:11:30.844Z,6.12
2017-12-15T00:16:46.810Z,5.73
2017-12-15T00:19:18.402Z,5.67
2017-12-15T00:21:51.884Z,5.90
2017-12-15T00:24:24.836Z,6.11
2017-12-15T00:27:01.544Z,6.12
2017-12-15T00:29:32.180Z,6.28
2017-12-15T00:32:04.422Z,6.31
2017-12-15T00:34:35.347Z,6.62
2017-12-15T00:37:12.645Z,6.86
2017-12-15T00:39:48.913Z,6.34
2017-12-15T00:42:25.415Z,6.08
2017-12-15T00:47:51.472Z,5.99
2017-12-15T00:50:24.493Z,5.98
2017-12-15T00:52:57.665Z,6.18
2017-12-15T00:55:29.486Z,6.04
2017-12-15T00:58:00.792Z,6.00
2017-12-15T01:00:36.630Z,6.05
2017-12-15T01:03:07.338Z,6.04
2017-12-15T01:05:47.427Z,6.12
2017-12-15T01:08:27.502Z,5.80
2017-12-15T01:10:59.320Z,5.66
2017-12-15T01:13:42.950Z,6.08
2017-12-15T01:16:17.697Z,5.80
2017-12-15T01:21:33.479Z,5.73
2017-12-15T01:24:08.832Z,5.65
2017-12-15T01:26:39.397Z,5.74
2017-12-15T01:29:11.500Z,5.47
2017-12-15T01:31:42.895Z,5.66
2017-12-15T01:34:16.809Z,5.41
2017-12-15T01:36:48.285Z,5.41
2017-12-15T01:39:18.879Z,5.61
2017-12-15T01:41:49.792Z,5.43
2017-12-15T01:44:21.456Z,5.75
2017-12-15T01:46:54.276Z,5.68
2017-12-15T01:49:25.426Z,5.60
2017-12-15T01:52:12.215Z,5.72
2017-12-15T01:54:45.395Z,5.31
2017-12-15T01:57:17.723Z,5.58
2017-12-15T01:59:48.752Z,5.74
2017-12-15T02:02:19.280Z,5.70
2017-12-15T02:04:50.204Z,5.96
2017-12-15T02:07:32.632Z,5.99
2017-12-15T02:10:02.659Z,5.37
2017-12-15T02:12:33.369Z,5.24
2017-12-15T02:15:05.144Z,5.46
2017-12-15T02:17:45.566Z,5.35
2017-12-15T02:20:19.229Z,5.40
2017-12-15T02:22:55.400Z,5.24
2017-12-15T02:25:25.489Z,5.21
2017-12-15T02:28:03.975Z,5.25
2017-12-15T02:30:35.840Z,5.49
2017-12-15T02:33:17.114Z,5.56
2017-12-15T02:35:54.407Z,5.44
2017-12-15T02:38:26.547Z,5.58
2017-12-15T02:40:58.864Z,5.66
2017-12-15T02:43:36.119Z,5.69
2017-12-15T02:46:09.107Z,5.37
2017-12-15T02:48:41.388Z,5.17
2017-12-15T02:51:22.969Z,5.10
2017-12-15T02:54:03.892Z,5.22
2017-12-15T02:56:34.713Z,5.30
2017-12-15T02:59:05.358Z,5.10
2017-12-15T03:01:38.086Z,4.93
2017-12-15T03:04:11.314Z,4.66
2017-12-15T03:06:44.225Z,4.99
2017-12-15T03:09:23.417Z,5.14
2017-12-15T03:11:55.420Z,4.82
2017-12-15T03:14:30.016Z,4.89
2017-12-15T03:17:17.478Z,4.70
2017-12-15T03:19:48.496Z,5.04
2017-12-15T03:22:18.887Z,5.01
2017-12-15T03:24:54.127Z,4.90
2017-12-15T03:27:26.877Z,5.34
2017-12-15T03:30:14.305Z,5.46
2017-12-15T03:32:45.989Z,5.19
2017-12-15T03:35:25.645Z,5.01
2017-12-15T03:38:03.897Z,5.06
2017-12-15T03:40:43.477Z,4.74
2017-12-15T03:43:14.932Z,4.60
2017-12-15T03:45:44.828Z,4.96
2017-12-15T03:48:18.095Z,5.12
2017-12-15T03:50:49.427Z,5.48
2017-12-15T03:53:22.613Z,5.16
2017-12-15T03:58:36.203Z,4.78
2017-12-15T04:01:15.942Z,4.85
2017-12-15T04:03:46.959Z,5.18
2017-12-15T04:09:18.172Z,4.66
2017-12-15T04:11:55.523Z,4.55
2017-12-15T04:14:24.855Z,4.57
2017-12-15T04:16:54.557Z,4.89
2017-12-15T04:19:29.280Z,4.90
2017-12-15T04:22:01.588Z,5.16
2017-12-15T04:24:43.838Z,4.73
2017-12-15T04:27:14.541Z,4.76
2017-12-15T04:29:44.802Z,4.86
2017-12-15T04:32:19.512Z,4.68
2017-12-15T04:35:03.579Z,4.81
2017-12-15T04:37:34.543Z,4.57
2017-12-15T04:40:05.322Z,4.75
2017-12-15T04:42:34.852Z,4.90
2017-12-15T04:45:04.916Z,5.06
2017-12-15T04:47:42.929Z,4.71
2017-12-15T04:50:12.573Z,4.18
2017-12-15T04:53:17.935Z,4.49
2017-12-15T04:55:48.117Z,4.55
2017-12-15T04:58:24.243Z,4.47
2017-12-15T05:00:59.234Z,4.60
2017-12-15T05:03:30.988Z,4.27
2017-12-15T05:06:14.032Z,4.26
2017-12-15T05:08:44.529Z,4.58
2017-12-15T05:11:21.882Z,4.63
2017-12-15T05:13:51.677Z,4.44
2017-12-15T05:16:28.987Z,4.48
2017-12-15T05:19:04.683Z,4.38
2017-12-15T05:21:35.402Z,4.48
2017-12-15T05:24:06.559Z,4.91
2017-12-15T05:26:39.610Z,4.81
2017-12-15T05:29:11.211Z,4.73
2017-12-15T05:31:42.667Z,4.72
2017-12-15T05:34:13.875Z,4.85
2017-12-15T05:36:43.955Z,4.70
2017-12-15T05:39:17.316Z,4.81
2017-12-15T05:42:02.692Z,4.67
2017-12-15T05:44:38.106Z,4.51
2017-12-15T05:47:12.716Z,4.43
2017-12-15T05:50:02.424Z,4.55
2017-12-15T05:52:37.067Z,4.22
2017-12-15T05:55:08.756Z,4.17
2017-12-15T05:57:38.489Z,4.04
2017-12-15T06:00:10.400Z,4.09
2017-12-15T06:02:40.447Z,4.23
2017-12-15T06:05:12.791Z,4.45
2017-12-15T06:07:43.589Z,4.48
2017-12-15T06:10:26.617Z,4.29
2017-12-15T06:12:56.578Z,4.33
2017-12-15T06:15:33.307Z,4.11
2017-12-15T06:18:03.982Z,4.47
2017-12-15T06:20:34.937Z,4.57
2017-12-15T06:23:15.871Z,4.58
2017-12-15T06:25:45.917Z,4.42
2017-12-15T06:28:18.391Z,4.58
2017-12-15T06:30:49.011Z,4.69
2017-12-15T06:33:25.277Z,4.99
2017-12-15T06:35:55.565Z,4.95
2017-12-15T06:41:09.246Z,4.27
2017-12-15T06:43:39.397Z,4.76
2017-12-15T06:46:10.307Z,4.92
2017-12-15T06:48:40.448Z,4.96
2017-12-15T06:51:11.317Z,4.90
2017-12-15T06:53:48.118Z,4.77
2017-12-15T06:56:19.370Z,4.47
2017-12-15T06:58:49.409Z,4.23
2017-12-15T07:01:21.598Z,4.01
2017-12-15T07:03:51.356Z,4.33
2017-12-15T07:06:22.090Z,4.53
2017-12-15T07:08:54.007Z,4.55
2017-12-15T07:11:26.081Z,4.90
2017-12-15T07:14:11.907Z,5.03
2017-12-15T07:16:42.491Z,5.02
2017-12-15T07:19:13.971Z,5.12
2017-12-15T07:21:47.735Z,4.69
2017-12-15T07:24:18.351Z,4.70
2017-12-15T07:26:48.798Z,4.91
2017-12-15T07:29:19.975Z,4.91
2017-12-15T07:31:49.990Z,5.13
2017-12-15T07:34:22.393Z,4.98
2017-12-15T07:37:02.609Z,4.90
2017-12-15T07:39:39.309Z,5.09
2017-12-15T07:42:08.982Z,5.20
2017-12-15T07:44:43.781Z,5.13
2017-12-15T07:47:14.715Z,5.07
2017-12-15T07:49:45.669Z,5.34
2017-12-15T07:52:38.784Z,5.21
2017-12-15T07:55:11.305Z,5.28
2017-12-15T07:57:46.259Z,5.26
2017-12-15T08:00:18.927Z,5.38
2017-12-15T08:02:51.579Z,5.82
2017-12-15T08:05:21.910Z,6.31
2017-12-15T08:07:52.561Z,5.99
2017-12-15T08:10:22.565Z,5.59
2017-12-15T08:12:54.289Z,5.29
2017-12-15T08:15:25.570Z,5.72
2017-12-15T08:18:02.710Z,6.15
2017-12-15T08:20:33.005Z,6.16
2017-12-15T08:23:04.311Z,6.40
2017-12-15T08:25:34.847Z,6.19
2017-12-15T08:28:04.609Z,6.47
2017-12-15T08:30:41.310Z,6.70
2017-12-15T08:33:19.284Z,6.72
2017-12-15T08:35:49.197Z,6.72
2017-12-15T08:38:18.908Z,6.91
2017-12-15T08:40:50.211Z,6.91
2017-12-15T08:43:19.930Z,7.06
2017-12-15T08:46:02.012Z,6.94
2017-12-15T08:48:39.323Z,6.59
2017-12-15T11:06:54.814Z,7.84
2017-12-15T11:09:26.737Z,8.18
2017-12-15T11:11:56.441Z,8.47
2017-12-15T11:14:43.765Z,8.55
2017-12-15T11:17:14.495Z,8.53
2017-12-15T11:19:46.685Z,8.86
2017-12-15T11:23:14.027Z,9.04
2017-12-15T11:28:26.144Z,8.71
2017-12-15T11:30:57.330Z,9.02
2017-12-15T11:33:27.414Z,9.04
2017-12-15T11:35:59.608Z,9.11
2017-12-15T11:38:29.338Z,9.18
2017-12-15T11:41:16.953Z,9.32
2017-12-15T11:43:46.835Z,9.82
2017-12-15T11:46:17.378Z,9.96
2017-12-15T11:48:53.457Z,10.09
2017-12-15T11:51:25.316Z,10.02
2017-12-15T11:53:56.444Z,9.80
2017-12-15T11:56:28.508Z,10.02
2017-12-15T11:59:04.448Z,10.05
2017-12-15T12:01:42.969Z,10.05
2017-12-15T12:04:14.334Z,9.95
2017-12-15T12:06:46.175Z,10.18
2017-12-15T12:09:15.919Z,10.02
2017-12-15T12:11:46.466Z,9.81
2017-12-15T12:14:18.471Z,9.90
2017-12-15T12:16:49.409Z,10.20
2017-12-15T12:19:33.018Z,9.98
2017-12-15T12:22:06.816Z,9.89
2017-12-15T12:24:41.445Z,9.99
2017-12-15T12:27:14.328Z,9.82
2017-12-15T12:32:23.188Z,9.78
2017-12-15T12:34:53.119Z,10.17
2017-12-15T12:37:23.753Z,10.21
2017-12-15T12:39:53.951Z,10.03
2017-12-15T12:42:24.606Z,10.09
2017-12-15T12:45:05.311Z,10.18
2017-12-15T12:47:35.266Z,10.20
2017-12-15T12:50:07.909Z,10.28
2017-12-15T12:52:42.065Z,10.26
2017-12-15T12:55:14.185Z,10.02
2017-12-15T12:57:53.213Z,9.78
2017-12-15T13:00:23.868Z,9.83
2017-12-15T13:02:55.966Z,10.02
2017-12-15T13:05:28.462Z,9.94
2017-12-15T13:08:02.277Z,9.99
2017-12-15T13:10:33.319Z,10.14
2017-12-15T13:13:04.948Z,10.28
2017-12-15T13:15:41.409Z,10.31
2017-12-15T13:18:11.877Z,10.31
2017-12-15T13:20:43.172Z,10.40
2017-12-15T13:23:22.021Z,10.71
2017-12-15T13:25:52.867Z,10.41
2017-12-15T13:28:25.533Z,10.25
2017-12-15T13:31:02.630Z,10.15
2017-12-15T13:33:47.228Z,9.86
2017-12-15T13:36:17.468Z,9.93
2017-12-15T13:42:33.289Z,9.81
2017-12-15T13:45:09.647Z,9.89
2017-12-15T13:47:41.850Z,9.99
2017-12-15T13:50:16.101Z,9.93
2017-12-15T13:52:47.239Z,10.12
2017-12-15T13:55:18.313Z,10.27
2017-12-15T13:57:52.248Z,10.11
2017-12-15T14:00:25.681Z,9.84
2017-12-15T14:02:56.644Z,9.86
2017-12-15T14:05:27.335Z,9.82
2017-12-15T14:08:05.728Z,9.67
2017-12-15T14:10:38.507Z,9.79
2017-12-15T14:13:11.218Z,9.81
2017-12-15T14:15:42.716Z,10.19
2017-12-15T14:18:19.213Z,10.34
2017-12-15T14:20:51.345Z,10.08
2017-12-15T14:23:24.790Z,9.63
2017-12-15T14:25:55.896Z,9.43
2017-12-15T14:28:28.276Z,8.73
2017-12-15T14:33:34.572Z,8.73
2017-12-15T14:36:06.816Z,9.15
2017-12-15T14:38:38.658Z,9.27
2017-12-15T14:41:12.349Z,8.88
2017-12-15T14:43:49.682Z,8.51
2017-12-15T14:46:20.270Z,9.10
2017-12-15T14:48:56.058Z,9.12
2017-12-15T14:51:27.538Z,9.06
2017-12-15T14:54:02.104Z,9.20
2017-12-15T14:56:34.779Z,9.64
2017-12-15T14:59:04.592Z,10.01
2017-12-15T15:01:56.939Z,9.88
2017-12-15T15:08:12.679Z,9.31
2017-12-15T15:10:42.824Z,9.21
2017-12-15T15:13:13.313Z,9.25
2017-12-15T15:15:44.379Z,9.82
2017-12-15T15:18:19.561Z,10.05
2017-12-15T15:20:54.031Z,10.23
2017-12-15T15:23:24.631Z,10.38
2017-12-15T15:25:58.380Z,10.32
2017-12-15T15:28:28.219Z,10.11
2017-12-15T15:30:58.634Z,9.79
2017-12-15T15:33:28.572Z,9.00
2017-12-15T15:35:59.260Z,8.64
2017-12-15T15:38:30.325Z,8.60
2017-12-15T15:41:00.373Z,8.61
2017-12-15T15:43:33.892Z,9.15
2017-12-15T15:46:06.191Z,9.30
2017-12-15T15:48:44.015Z,9.38
2017-12-15T15:51:14.028Z,9.55
2017-12-15T15:53:44.222Z,9.62
2017-12-15T15:56:14.283Z,9.90
2017-12-15T15:58:44.652Z,9.49
2017-12-15T16:01:14.430Z,9.13
2017-12-15T16:03:49.490Z,8.94
2017-12-15T16:06:19.452Z,9.33
2017-12-15T16:08:51.992Z,9.47
2017-12-15T16:11:25.582Z,9.54
2017-12-15T16:13:57.370Z,9.50
2017-12-15T16:16:27.203Z,9.63
2017-12-15T16:18:56.690Z,9.57
2017-12-15T16:21:28.229Z,9.69
2017-12-15T16:24:04.840Z,9.32
2017-12-15T16:26:45.323Z,9.10
2017-12-15T16:29:16.282Z,9.25
2017-12-15T16:31:50.462Z,9.18
2017-12-15T16:34:21.420Z,9.50
2017-12-15T16:36:54.334Z,9.47
2017-12-15T16:39:28.613Z,9.45
2017-12-15T16:42:11.085Z,9.41
2017-12-15T16:44:41.153Z,9.00
2017-12-15T16:47:11.941Z,9.13
2017-12-15T16:49:42.478Z,9.15
2017-12-15T16:52:18.423Z,9.07
2017-12-15T16:54:49.982Z,9.15
2017-12-15T16:57:20.860Z,9.23
2017-12-15T16:59:50.944Z,9.30
2017-12-15T17:02:28.608Z,9.01
2017-12-15T17:05:03.889Z,9.20
2017-12-15T17:07:35.415Z,9.46
2017-12-15T17:10:09.483Z,9.37
2017-12-15T17:12:39.082Z,9.36
2017-12-15T17:15:10.563Z,9.11
2017-12-15T17:17:41.204Z,9.21
2017-12-15T17:20:11.976Z,9.26
2017-12-15T17:22:42.325Z,9.27
2017-12-15T17:25:12.363Z,9.25
2017-12-15T17:27:44.405Z,9.23
2017-12-15T17:30:14.320Z,9.27
2017-12-15T17:32:45.180Z,9.37
2017-12-15T17:35:15.194Z,9.12
2017-12-15T17:37:47.417Z,9.09
2017-12-15T17:40:18.919Z,8.97
2017-12-15T17:42:50.264Z,9.01
2017-12-15T17:45:21.472Z,8.93
2017-12-15T17:47:51.312Z,8.94
2017-12-15T17:50:22.824Z,8.76
2017-12-15T17:52:56.121Z,9.16
2017-12-15T17:55:27.292Z,9.19
2017-12-15T17:58:04.991Z,9.42
2017-12-15T18:03:21.236Z,9.74
2017-12-15T18:05:51.205Z,9.96
2017-12-15T18:08:21.325Z,10.03
2017-12-15T18:10:58.051Z,10.02
2017-12-15T18:13:32.220Z,10.17
2017-12-15T18:16:04.083Z,9.91
2017-12-15T18:18:35.654Z,10.02
2017-12-15T18:21:07.906Z,9.98
2017-12-15T18:23:41.974Z,10.23
2017-12-15T18:26:13.293Z,10.23
2017-12-15T18:28:46.027Z,10.20
2017-12-15T18:31:16.262Z,10.33
2017-12-15T18:33:48.830Z,10.19
2017-12-15T18:36:18.353Z,9.66
2017-12-15T18:38:54.214Z,9.61
2017-12-15T18:41:26.728Z,9.56
2017-12-15T18:44:07.663Z,9.44
2017-12-15T18:49:16.584Z,9.87
2017-12-15T18:51:46.736Z,9.93
2017-12-15T18:54:17.763Z,9.74
2017-12-15T18:56:50.513Z,9.63
2017-12-15T18:59:24.473Z,9.62
2017-12-15T19:02:03.515Z,9.67
2017-12-15T19:04:33.904Z,9.40
2017-12-15T19:07:04.442Z,9.50
2017-12-15T19:09:35.447Z,9.33
2017-12-15T19:12:06.916Z,9.31
2017-12-15T19:14:38.532Z,9.39
2017-12-15T19:17:10.291Z,9.52
2017-12-15T19:19:40.925Z,9.69
2017-12-15T19:22:16.168Z,9.54
2017-12-15T19:24:46.721Z,9.55
2017-12-15T19:27:20.363Z,9.44
2017-12-15T19:32:31.364Z,9.19
2017-12-15T19:35:02.391Z,9.13
2017-12-15T19:37:35.863Z,8.95
2017-12-15T19:40:12.924Z,8.96
2017-12-15T19:42:49.561Z,9.14
2017-12-15T19:45:22.688Z,9.01
2017-12-15T19:47:54.681Z,8.88
2017-12-15T19:50:32.108Z,9.06
2017-12-15T19:53:07.793Z,9.23
2017-12-15T19:55:46.338Z,9.35
2017-12-15T19:58:18.433Z,9.77
2017-12-15T20:00:48.228Z,9.39
2017-12-15T20:03:18.751Z,9.37
2017-12-15T20:05:51.133Z,9.04
2017-12-15T20:08:21.880Z,9.05
2017-12-15T20:14:20.451Z,9.16
2017-12-15T20:16:50.245Z,8.95
2017-12-15T20:19:22.178Z,8.73
2017-12-15T20:22:05.342Z,8.80
2017-12-15T20:24:36.613Z,8.99
2017-12-15T20:27:08.448Z,9.13
2017-12-15T20:29:39.152Z,9.14
2017-12-15T20:32:11.869Z,9.14
2017-12-15T20:34:44.041Z,9.44
2017-12-15T20:37:14.181Z,9.26
2017-12-15T20:39:44.160Z,9.54
2017-12-15T20:42:30.511Z,9.55
2017-12-15T20:45:01.143Z,9.36
2017-12-15T20:47:36.001Z,9.48
2017-12-15T20:50:06.865Z,9.42
2017-12-15T20:52:40.369Z,9.42
2017-12-15T20:55:10.513Z,9.44
2017-12-15T20:57:47.648Z,9.47
2017-12-15T21:00:18.771Z,9.19
2017-12-15T21:02:49.176Z,9.43
2017-12-15T21:05:24.528Z,9.47
2017-12-15T21:08:02.847Z,9.37
2017-12-15T21:10:33.345Z,9.29
2017-12-15T21:13:07.266Z,9.13
2017-12-15T21:15:37.157Z,8.97
2017-12-15T21:18:07.802Z,8.96
2017-12-15T21:20:39.817Z,9.07
2017-12-15T21:23:11.825Z,9.11
2017-12-15T21:25:55.125Z,9.19
2017-12-15T21:28:24.875Z,9.17
2017-12-15T21:30:58.424Z,9.09
2017-12-15T21:33:28.373Z,9.01
2017-12-15T21:36:03.957Z,8.85
2017-12-15T21:38:35.065Z,8.84
2017-12-15T21:41:05.549Z,9.14
2017-12-15T21:43:36.299Z,9.16
2017-12-15T21:46:07.180Z,9.27
2017-12-15T21:48:37.418Z,9.45
2017-12-15T21:51:17.983Z,9.43
2017-12-15T21:53:51.268Z,9.06
2017-12-15T21:56:22.285Z,8.90
2017-12-15T21:58:52.977Z,8.78
2017-12-15T22:01:24.135Z,8.67
2017-12-15T22:03:54.514Z,8.71
2017-12-15T22:06:25.354Z,8.73
2017-12-15T22:08:55.254Z,8.82
2017-12-15T22:11:30.483Z,8.87
2017-12-15T22:14:00.338Z,8.91
2017-12-15T22:16:35.551Z,8.97
2017-12-15T22:19:06.170Z,8.95
2017-12-15T22:21:37.495Z,8.91
2017-12-15T22:24:08.113Z,8.83
2017-12-15T22:26:43.750Z,8.91
2017-12-15T22:29:13.443Z,8.79
2017-12-15T22:32:03.062Z,8.73
2017-12-15T22:34:36.055Z,8.77
2017-12-15T22:37:08.945Z,8.70
2017-12-15T22:39:43.634Z,8.58
2017-12-15T22:42:16.632Z,8.56
2017-12-15T22:44:48.184Z,8.61
2017-12-15T22:47:26.732Z,8.70
2017-12-15T22:49:59.420Z,8.68
2017-12-15T22:52:30.482Z,8.28
2017-12-15T22:55:04.558Z,8.15
2017-12-15T22:57:34.696Z,8.23
2017-12-15T23:00:08.604Z,8.07
2017-12-15T23:02:38.039Z,8.26
2017-12-15T23:05:20.921Z,8.25
2017-12-15T23:08:22.349Z,8.12
2017-12-15T23:14:04.128Z,7.98
2017-12-15T23:17:07.024Z,8.04
2017-12-15T23:19:37.222Z,8.23
2017-12-15T23:22:37.924Z,8.41
2017-12-15T23:25:12.995Z,8.49
2017-12-15T23:27:57.903Z,8.68
2017-12-15T23:30:49.447Z,8.65
2017-12-15T23:33:31.829Z,8.90
2017-12-15T23:36:14.185Z,9.01
2017-12-15T23:39:08.668Z,8.40
2017-12-15T23:46:01.971Z,8.24
2017-12-15T23:48:44.843Z,8.23
2017-12-15T23:51:16.419Z,8.07
2017-12-15T23:54:20.060Z,7.99
2017-12-15T23:57:18.869Z,7.98
2017-12-15T23:59:51.761Z,8.13
